Time;durP1;ratioP1;P1;durP2;ratioP2;P2;SDS_P1;SDS_P2;PMS_P1;PMS_P2;Temp;Humidity;BMP_temperature;BMP_pressure;BME280_temperature;BME280_humidity;BME280_pressure;Samples;Min_cycle;Max_cycle;Signal;HPM_P1;HPM_P2
2023/03/05 00:01:08;;;;;;;30.73;11.50;;;4.60;1.00;;;;;;5089874;28;20531;-57
2023/03/05 00:03:34;;;;;;;26.85;11.00;;;4.60;1.00;;;;;;5090521;28;20390;-57
2023/03/05 00:06:00;;;;;;;23.35;10.05;;;4.60;1.00;;;;;;5089724;28;20402;-57
2023/03/05 00:08:27;;;;;;;26.60;10.57;;;4.60;1.00;;;;;;5090315;28;20456;-57
2023/03/05 00:11:01;;;;;;;28.00;11.50;;;4.60;1.00;;;;;;5089949;28;20393;-56
2023/03/05 00:13:27;;;;;;;25.95;10.90;;;6.00;1.00;;;;;;5090160;28;20882;-57
2023/03/05 00:15:53;;;;;;;27.02;9.75;;;4.70;1.00;;;;;;5089673;28;20461;-57
2023/03/05 00:18:18;;;;;;;21.90;9.67;;;4.60;1.00;;;;;;5090236;28;20414;-56
2023/03/05 00:20:44;;;;;;;33.38;10.60;;;4.50;1.00;;;;;;5089751;28;20377;-56
2023/03/05 00:23:10;;;;;;;27.17;9.88;;;4.50;1.00;;;;;;5090054;28;20389;-57
2023/03/05 00:25:36;;;;;;;26.65;10.63;;;4.50;1.00;;;;;;5090238;28;20736;-56
2023/03/05 00:28:03;;;;;;;31.05;11.27;;;4.40;1.00;;;;;;5089156;28;20428;-56
2023/03/05 00:30:30;;;;;;;30.63;11.70;;;4.40;1.00;;;;;;5090236;28;20393;-56
2023/03/05 00:32:56;;;;;;;28.20;11.23;;;4.40;1.00;;;;;;5089700;28;20416;-57
2023/03/05 00:35:21;;;;;;;23.38;9.45;;;4.60;1.00;;;;;;5089784;28;20408;-56
2023/03/05 00:37:47;;;;;;;29.03;10.10;;;4.60;1.00;;;;;;5089505;28;20374;-57
2023/03/05 00:40:13;;;;;;;26.63;10.80;;;6.20;1.00;;;;;;5050063;28;20464;-56
2023/03/05 00:42:38;;;;;;;23.48;9.38;;;4.70;1.00;;;;;;5049648;28;20417;-57
2023/03/05 00:45:06;;;;;;;34.03;11.77;;;4.70;1.00;;;;;;5047613;28;20417;-56
2023/03/05 00:47:32;;;;;;;27.55;10.35;;;4.80;1.00;;;;;;5049806;28;20377;-56
2023/03/05 00:49:58;;;;;;;26.65;9.13;;;6.30;1.00;;;;;;5049282;28;20951;-57
2023/03/05 00:52:23;;;;;;;27.38;11.07;;;4.70;1.00;;;;;;5049677;28;20456;-57
2023/03/05 00:54:49;;;;;;;31.43;11.77;;;4.90;1.00;;;;;;5075271;28;20404;-57
2023/03/05 00:57:15;;;;;;;29.15;9.77;;;4.90;1.00;;;;;;5089908;28;20388;-57
2023/03/05 00:59:40;;;;;;;27.60;10.50;;;4.90;1.00;;;;;;5089485;28;20416;-57
2023/03/05 01:02:06;;;;;;;29.63;11.38;;;6.40;1.00;;;;;;5089168;28;21177;-57
2023/03/05 01:04:32;;;;;;;28.50;10.40;;;6.30;1.00;;;;;;5089606;28;20432;-57
2023/03/05 01:06:58;;;;;;;29.77;10.10;;;4.90;1.00;;;;;;5088599;28;20393;-57
2023/03/05 01:09:24;;;;;;;25.67;10.43;;;4.90;1.00;;;;;;5089453;28;20875;-57
2023/03/05 01:11:50;;;;;;;29.25;10.13;;;5.70;1.00;;;;;;5088843;28;20413;-57
2023/03/05 01:14:16;;;;;;;25.67;10.37;;;4.90;1.00;;;;;;5089627;28;20366;-57
2023/03/05 01:16:42;;;;;;;27.02;9.52;;;4.90;1.00;;;;;;5089530;28;20473;-57
2023/03/05 01:19:08;;;;;;;23.33;9.80;;;5.00;1.00;;;;;;5090434;28;20465;-57
2023/03/05 01:21:35;;;;;;;27.85;10.50;;;4.80;1.00;;;;;;5093586;28;20406;-57
2023/03/05 01:24:01;;;;;;;25.48;10.82;;;4.80;1.00;;;;;;5093139;28;20899;-57
2023/03/05 01:26:27;;;;;;;21.83;10.05;;;4.80;1.00;;;;;;5093943;28;20486;-57
2023/03/05 01:28:52;;;;;;;36.58;10.52;;;6.40;1.00;;;;;;5092718;28;20863;-57
2023/03/05 01:31:18;;;;;;;27.30;10.67;;;6.60;1.00;;;;;;5093785;28;20380;-57
2023/03/05 01:33:44;;;;;;;24.10;8.50;;;4.80;1.00;;;;;;5093300;28;20952;-57
2023/03/05 01:36:13;;;;;;;22.53;9.87;;;4.70;1.00;;;;;;5093192;28;20423;-57
2023/03/05 01:38:43;;;;;;;26.50;9.90;;;4.80;1.00;;;;;;5093388;28;20432;-57
2023/03/05 01:41:09;;;;;;;21.20;7.55;;;4.70;1.00;;;;;;5092885;28;20378;-57
2023/03/05 01:43:35;;;;;;;23.65;9.00;;;4.70;1.00;;;;;;5093573;28;20409;-57
2023/03/05 01:46:27;;;;;;;27.40;10.03;;;4.70;1.00;;;;;;5092725;28;20438;-57
2023/03/05 01:49:09;;;;;;;27.15;9.88;;;4.80;1.00;;;;;;5092695;28;20385;-57
2023/03/05 01:51:44;;;;;;;21.33;8.37;;;4.80;1.00;;;;;;5092841;28;20870;-57
2023/03/05 01:54:12;;;;;;;25.13;8.48;;;4.70;1.00;;;;;;5092504;28;20439;-57
2023/03/05 01:56:38;;;;;;;20.42;7.32;;;4.80;1.00;;;;;;5092587;28;20408;-57
2023/03/05 01:59:05;;;;;;;23.98;8.00;;;4.80;1.00;;;;;;5092083;28;20394;-57
2023/03/05 02:01:37;;;;;;;25.50;8.32;;;4.80;1.00;;;;;;5093133;28;20378;-57
2023/03/05 02:04:03;;;;;;;23.45;7.32;;;4.70;1.00;;;;;;5092403;28;20378;-57
2023/03/05 02:06:29;;;;;;;18.00;6.40;;;4.70;1.00;;;;;;5092694;28;20902;-57
2023/03/05 02:08:55;;;;;;;20.48;7.55;;;4.70;1.00;;;;;;5092168;28;20378;-57
2023/03/05 02:11:22;;;;;;;21.35;7.72;;;4.70;1.00;;;;;;5092804;28;20437;-57
2023/03/05 02:13:47;;;;;;;19.00;7.72;;;4.70;1.00;;;;;;5092281;28;20394;-57
2023/03/05 02:16:13;;;;;;;22.70;7.57;;;4.70;97.60;;;;;;5092914;28;20716;-57
2023/03/05 02:18:39;;;;;;;19.13;7.57;;;5.50;21.00;;;;;;5092743;28;20382;-57
2023/03/05 02:21:06;;;;;;;21.33;7.50;;;5.50;28.30;;;;;;5092048;28;20394;-57
2023/03/05 02:23:35;;;;;;;21.40;7.72;;;4.70;58.50;;;;;;5092802;28;20378;-57
2023/03/05 02:26:02;;;;;;;20.23;7.35;;;6.40;54.80;;;;;;5091613;28;20417;-57
2023/03/05 02:28:36;;;;;;;25.35;8.07;;;4.80;1.00;;;;;;5092223;28;20417;-57
2023/03/05 02:31:16;;;;;;;25.13;8.80;;;4.80;1.00;;;;;;5091463;28;20389;-57
2023/03/05 02:33:42;;;;;;;22.77;7.77;;;4.80;1.00;;;;;;5092564;28;20419;-57
2023/03/05 02:36:09;;;;;;;22.67;6.90;;;4.70;1.00;;;;;;5091671;28;20382;-57
2023/03/05 02:38:35;;;;;;;20.38;7.50;;;6.30;7.00;;;;;;5092316;28;20945;-57
2023/03/05 02:41:00;;;;;;;19.52;6.72;;;4.90;1.00;;;;;;5091685;28;20424;-57
2023/03/05 02:43:26;;;;;;;18.33;5.90;;;4.90;1.00;;;;;;5092164;28;20418;-57
2023/03/05 02:45:52;;;;;;;17.98;5.55;;;4.90;1.00;;;;;;5091323;28;20767;-57
2023/03/05 02:48:17;;;;;;;19.83;6.13;;;4.70;1.00;;;;;;5092563;28;20877;-57
2023/03/05 02:50:45;;;;;;;22.38;6.63;;;4.60;13.10;;;;;;5091937;28;20519;-57
2023/03/05 02:53:10;;;;;;;16.10;6.38;;;4.60;97.30;;;;;;5091544;28;20413;-57
2023/03/05 02:55:36;;;;;;;22.35;6.70;;;4.60;99.90;;;;;;5092306;28;20437;-57
2023/03/05 02:58:02;;;;;;;15.43;6.22;;;5.70;99.90;;;;;;5090939;28;20882;-57
2023/03/05 03:00:27;;;;;;;16.73;6.20;;;5.60;99.90;;;;;;5092095;28;20467;-57
2023/03/05 03:02:53;;;;;;;19.80;6.88;;;5.70;99.90;;;;;;5091357;28;20485;-57
2023/03/05 03:05:18;;;;;;;24.47;6.53;;;4.40;99.90;;;;;;5092143;28;20797;-57
2023/03/05 03:07:44;;;;;;;21.40;7.22;;;5.90;1.00;;;;;;5091875;28;20460;-57
2023/03/05 03:10:11;;;;;;;18.65;5.60;;;3.20;1.00;;;;;;5091344;28;20393;-57
2023/03/05 03:12:42;;;;;;;16.52;6.13;;;4.40;1.00;;;;;;5091518;28;20395;-57
2023/03/05 03:15:10;;;;;;;20.00;5.83;;;4.40;1.00;;;;;;5090796;28;20389;-57
2023/03/05 03:17:36;;;;;;;17.97;6.73;;;4.40;1.00;;;;;;5091703;28;20410;-57
2023/03/05 03:20:03;;;;;;;21.17;6.47;;;4.50;1.00;;;;;;5091051;28;20453;-57
2023/03/05 03:22:29;;;;;;;16.30;5.83;;;4.60;1.00;;;;;;5091579;28;20386;-57
2023/03/05 03:24:55;;;;;;;17.67;6.07;;;4.60;1.00;;;;;;5090788;28;20433;-57
2023/03/05 03:27:21;;;;;;;21.80;6.65;;;5.60;99.90;;;;;;5091448;28;20434;-57
2023/03/05 03:29:46;;;;;;;14.65;6.10;;;4.60;1.00;;;;;;5090596;28;20406;-57
2023/03/05 03:32:12;;;;;;;24.90;6.77;;;4.70;99.90;;;;;;5090960;28;20390;-57
2023/03/05 03:34:39;;;;;;;16.77;5.30;;;5.60;99.90;;;;;;5091270;28;20385;-57
2023/03/05 03:37:05;;;;;;;20.63;7.10;;;4.80;99.90;;;;;;5090485;28;20488;-57
2023/03/05 03:39:31;;;;;;;21.83;6.93;;;4.70;99.90;;;;;;5091370;28;20378;-57
2023/03/05 03:41:56;;;;;;;22.88;6.53;;;4.70;99.90;;;;;;5089470;28;20408;-57
2023/03/05 03:44:22;;;;;;;25.70;6.70;;;6.10;99.90;;;;;;5091066;28;20462;-57
2023/03/05 03:46:49;;;;;;;24.85;7.90;;;5.60;99.90;;;;;;5090473;28;20409;-58
2023/03/05 03:49:18;;;;;;;22.95;7.20;;;5.60;99.90;;;;;;5090858;28;20863;-57
2023/03/05 03:51:45;;;;;;;19.83;6.55;;;4.80;99.90;;;;;;5090852;28;20420;-57
2023/03/05 03:54:10;;;;;;;21.23;6.80;;;5.20;99.90;;;;;;5090472;28;20394;-57
2023/03/05 03:56:36;;;;;;;16.48;6.47;;;4.90;99.90;;;;;;5091124;28;20485;-57
2023/03/05 03:59:02;;;;;;;23.63;6.85;;;4.90;58.60;;;;;;5090356;28;20409;-57
2023/03/05 04:01:28;;;;;;;20.17;6.50;;;4.90;45.30;;;;;;5090700;28;20382;-57
2023/03/05 04:03:53;;;;;;;19.87;6.70;;;4.90;44.40;;;;;;5089801;28;20412;-57
2023/03/05 04:06:19;;;;;;;19.30;7.13;;;4.90;33.00;;;;;;5090611;28;20505;-57
2023/03/05 04:08:44;;;;;;;20.80;7.00;;;4.80;38.80;;;;;;5090493;28;20469;-57
2023/03/05 04:11:10;;;;;;;25.30;6.45;;;4.80;92.80;;;;;;5090099;28;20419;-57
2023/03/05 04:13:36;;;;;;;20.13;5.73;;;6.50;90.90;;;;;;5090416;28;20390;-57
2023/03/05 04:16:01;;;;;;;19.80;6.65;;;4.70;99.90;;;;;;5089687;28;20868;-56
2023/03/05 04:18:27;;;;;;;19.67;6.87;;;4.60;99.90;;;;;;5090313;28;20399;-57
2023/03/05 04:20:52;;;;;;;18.00;6.17;;;4.60;99.90;;;;;;5090049;28;20378;-57
2023/03/05 04:23:18;;;;;;;21.70;7.60;;;5.00;99.90;;;;;;5090273;28;20465;-56
2023/03/05 04:25:44;;;;;;;20.63;5.60;;;4.70;99.90;;;;;;5089934;28;20401;-57
2023/03/05 04:28:09;;;;;;;17.53;6.40;;;6.40;99.90;;;;;;5089372;28;20653;-57
2023/03/05 04:30:35;;;;;;;20.93;6.63;;;4.60;99.90;;;;;;5090100;28;20405;-57
2023/03/05 04:33:00;;;;;;;20.63;6.85;;;4.60;99.90;;;;;;5089357;28;20853;-57
2023/03/05 04:35:27;;;;;;;18.40;6.17;;;4.60;99.90;;;;;;5090249;28;20854;-56
2023/03/05 04:37:53;;;;;;;20.83;6.40;;;4.60;99.90;;;;;;5089506;28;20490;-57
2023/03/05 04:40:19;;;;;;;21.10;7.10;;;4.50;99.90;;;;;;5090228;28;20417;-57
2023/03/05 04:42:44;;;;;;;20.98;6.70;;;4.50;99.90;;;;;;5090284;28;20746;-57
2023/03/05 04:45:10;;;;;;;20.52;7.10;;;4.50;99.90;;;;;;5089315;28;20988;-57
2023/03/05 04:47:36;;;;;;;21.00;6.32;;;4.40;99.90;;;;;;5090081;28;20386;-57
2023/03/05 04:50:04;;;;;;;21.33;6.63;;;4.40;99.90;;;;;;5088782;28;20755;-56
2023/03/05 04:52:30;;;;;;;18.30;6.45;;;4.40;99.90;;;;;;5090304;28;20386;-56
2023/03/05 04:54:55;;;;;;;19.80;6.90;;;4.30;99.90;;;;;;5088928;28;20401;-56
2023/03/05 04:57:21;;;;;;;18.48;5.93;;;4.20;99.90;;;;;;5089872;28;20386;-57
2023/03/05 04:59:47;;;;;;;20.60;6.90;;;4.30;99.90;;;;;;5090050;28;20405;-56
2023/03/05 05:02:13;;;;;;;22.55;5.90;;;4.20;99.90;;;;;;5088918;28;20389;-57
2023/03/05 05:04:39;;;;;;;20.17;6.43;;;4.30;99.90;;;;;;5079404;28;20400;-57
2023/03/05 05:07:06;;;;;;;18.00;5.55;;;4.30;99.90;;;;;;5067759;28;20384;-57
2023/03/05 05:09:32;;;;;;;20.80;6.78;;;4.40;99.90;;;;;;5070903;28;20390;-57
2023/03/05 05:11:58;;;;;;;20.38;6.45;;;4.40;99.90;;;;;;5088680;28;20829;-57
2023/03/05 05:14:23;;;;;;;21.30;6.35;;;4.40;99.90;;;;;;5089665;28;20473;-57
2023/03/05 05:16:49;;;;;;;20.73;6.10;;;4.40;99.90;;;;;;5083289;28;20404;-58
2023/03/05 05:19:14;;;;;;;21.88;7.65;;;4.40;99.90;;;;;;5084142;28;20387;-57
2023/03/05 05:21:40;;;;;;;22.37;8.23;;;5.70;99.90;;;;;;5089705;28;20382;-57
2023/03/05 05:24:06;;;;;;;23.48;7.65;;;4.40;99.90;;;;;;5088319;28;20439;-57
2023/03/05 05:26:32;;;;;;;24.40;6.50;;;4.40;99.90;;;;;;5089014;28;20559;-57
2023/03/05 05:28:57;;;;;;;18.83;6.30;;;4.40;99.90;;;;;;5085406;28;20918;-56
2023/03/05 05:31:24;;;;;;;18.30;6.57;;;4.30;99.90;;;;;;5088641;28;20773;-57
2023/03/05 05:33:50;;;;;;;17.80;6.75;;;4.30;99.90;;;;;;5088683;28;20390;-57
2023/03/05 05:36:18;;;;;;;20.00;6.30;;;5.10;99.90;;;;;;5088541;28;20394;-57
2023/03/05 05:38:44;;;;;;;20.83;6.45;;;4.30;99.90;;;;;;5088737;28;20850;-57
2023/03/05 05:41:12;;;;;;;23.75;7.38;;;6.00;99.90;;;;;;5088463;28;20378;-57
2023/03/05 05:43:39;;;;;;;19.80;6.72;;;4.40;99.90;;;;;;5083736;28;20389;-57
2023/03/05 05:46:07;;;;;;;21.33;7.32;;;4.40;74.90;;;;;;5088113;28;20843;-57
2023/03/05 05:48:34;;;;;;;20.95;6.43;;;4.50;44.90;;;;;;5088975;28;20374;-57
2023/03/05 05:51:05;;;;;;;22.20;7.35;;;4.60;65.30;;;;;;5083002;28;20382;-57
2023/03/05 05:53:33;;;;;;;18.15;6.53;;;4.50;58.00;;;;;;5089031;28;20381;-57
2023/03/05 05:55:59;;;;;;;21.27;6.20;;;5.90;65.00;;;;;;5082916;28;20906;-57
2023/03/05 05:58:24;;;;;;;20.15;6.72;;;4.40;99.90;;;;;;5088816;28;20382;-57
2023/03/05 06:00:50;;;;;;;17.00;6.40;;;4.50;92.10;;;;;;5088112;28;20843;-57
2023/03/05 06:03:15;;;;;;;21.15;6.47;;;4.60;34.10;;;;;;5088588;28;20806;-57
2023/03/05 06:05:42;;;;;;;18.80;6.50;;;6.20;4.00;;;;;;5091379;28;20402;-57
2023/03/05 06:08:08;;;;;;;26.40;7.20;;;6.30;11.70;;;;;;5091701;28;21228;-57
2023/03/05 06:10:34;;;;;;;15.63;6.25;;;6.30;1.00;;;;;;5093040;28;20855;-57
2023/03/05 06:12:59;;;;;;;24.70;6.88;;;5.70;1.00;;;;;;5092432;28;20381;-57
2023/03/05 06:15:25;;;;;;;19.97;6.80;;;4.70;1.00;;;;;;5093038;28;20390;-57
2023/03/05 06:17:51;;;;;;;24.85;7.50;;;4.70;1.00;;;;;;5092059;28;20905;-57
2023/03/05 06:20:17;;;;;;;22.05;7.63;;;4.70;1.00;;;;;;5092924;28;20466;-57
2023/03/05 06:22:43;;;;;;;22.57;7.00;;;4.60;1.00;;;;;;5092540;28;20406;-57
2023/03/05 06:25:09;;;;;;;18.60;7.20;;;5.80;1.00;;;;;;5091948;28;20409;-57
2023/03/05 06:27:36;;;;;;;17.87;7.03;;;4.70;1.00;;;;;;5092516;28;20796;-57
2023/03/05 06:30:02;;;;;;;23.60;7.78;;;5.10;1.00;;;;;;5091885;28;20853;-57
2023/03/05 06:32:27;;;;;;;19.55;6.18;;;4.60;1.00;;;;;;5092640;28;20390;-57
2023/03/05 06:34:53;;;;;;;23.13;6.73;;;4.70;1.00;;;;;;5091780;28;20734;-57
2023/03/05 06:37:18;;;;;;;21.50;7.30;;;4.90;1.00;;;;;;5092460;28;20442;-57
2023/03/05 06:39:44;;;;;;;22.80;7.60;;;4.80;1.00;;;;;;5092576;28;20386;-57
2023/03/05 06:42:11;;;;;;;21.23;6.80;;;5.30;1.00;;;;;;5091661;28;20471;-57
2023/03/05 06:44:39;;;;;;;20.48;7.55;;;4.80;1.00;;;;;;5092094;28;21185;-57
2023/03/05 06:47:05;;;;;;;16.83;6.40;;;4.80;1.00;;;;;;5091507;28;20411;-57
2023/03/05 06:49:31;;;;;;;21.60;6.25;;;4.90;1.00;;;;;;5092265;28;20723;-57
2023/03/05 06:51:56;;;;;;;22.25;6.55;;;4.80;1.00;;;;;;5091110;28;20473;-57
2023/03/05 06:54:22;;;;;;;18.77;6.53;;;4.90;1.00;;;;;;5091856;28;20386;-57
2023/03/05 06:56:48;;;;;;;16.13;6.03;;;6.60;1.00;;;;;;5091827;28;20402;-57
2023/03/05 06:59:15;;;;;;;20.77;6.43;;;4.80;1.00;;;;;;5088563;28;20406;-57
2023/03/05 07:01:41;;;;;;;21.20;7.90;;;6.40;1.00;;;;;;5085286;28;20394;-57
2023/03/05 07:04:07;;;;;;;23.52;8.13;;;4.70;1.00;;;;;;5080032;28;20399;-57
2023/03/05 07:06:37;;;;;;;21.20;8.05;;;4.70;1.00;;;;;;5072485;28;20414;-57
2023/03/05 07:09:04;;;;;;;20.58;7.70;;;4.80;1.00;;;;;;5071413;28;20395;-57
2023/03/05 07:11:30;;;;;;;24.02;8.40;;;4.80;1.00;;;;;;5071419;28;20825;-57
2023/03/05 07:13:56;;;;;;;19.20;7.38;;;4.90;1.00;;;;;;5070739;28;20845;-58
2023/03/05 07:16:24;;;;;;;22.00;6.90;;;4.90;1.00;;;;;;5070336;28;20384;-57
2023/03/05 07:18:50;;;;;;;23.13;8.23;;;5.00;1.00;;;;;;5071530;28;20494;-57
2023/03/05 07:21:19;;;;;;;20.08;7.90;;;5.30;1.00;;;;;;5070647;28;20424;-57
2023/03/05 07:23:45;;;;;;;22.77;7.40;;;4.90;1.00;;;;;;5082803;28;20532;-57
2023/03/05 07:26:11;;;;;;;25.25;6.85;;;4.90;1.00;;;;;;5088572;28;20888;-57
2023/03/05 07:28:37;;;;;;;24.30;7.20;;;5.70;1.00;;;;;;5090908;28;20850;-57
2023/03/05 07:31:07;;;;;;;21.35;7.32;;;5.10;1.00;;;;;;5086373;28;20433;-57
2023/03/05 07:33:35;;;;;;;23.25;7.45;;;5.70;1.00;;;;;;5071334;28;20410;-57
2023/03/05 07:36:00;;;;;;;25.70;7.60;;;4.70;1.00;;;;;;5070010;28;20453;-57
2023/03/05 07:38:26;;;;;;;21.85;7.53;;;6.20;1.00;;;;;;5070806;28;20869;-57
2023/03/05 07:40:52;;;;;;;22.65;9.00;;;4.90;1.00;;;;;;5070345;28;20740;-57
2023/03/05 07:43:18;;;;;;;17.90;7.13;;;5.00;1.00;;;;;;5070711;28;20429;-57
2023/03/05 07:45:45;;;;;;;19.55;6.95;;;4.90;1.00;;;;;;5070943;28;20407;-57
2023/03/05 07:48:16;;;;;;;24.02;7.72;;;5.50;1.00;;;;;;5070105;28;20375;-57
2023/03/05 07:50:42;;;;;;;22.98;7.00;;;5.00;1.00;;;;;;5070632;28;20411;-57
2023/03/05 07:53:09;;;;;;;22.57;7.50;;;5.10;1.00;;;;;;5070067;28;20720;-56
2023/03/05 07:55:40;;;;;;;23.00;7.13;;;5.10;1.00;;;;;;5070124;28;20406;-56
2023/03/05 07:58:05;;;;;;;23.80;8.10;;;5.30;1.00;;;;;;5069774;28;20392;-56
2023/03/05 08:00:31;;;;;;;19.30;6.37;;;5.10;1.00;;;;;;5070365;28;20384;-57
2023/03/05 08:02:56;;;;;;;20.38;6.90;;;5.00;1.00;;;;;;5069151;28;20387;-57
2023/03/05 08:05:22;;;;;;;24.97;9.30;;;4.90;1.00;;;;;;5069079;28;20407;-56
2023/03/05 08:07:48;;;;;;;30.10;11.05;;;5.60;1.00;;;;;;5069996;28;20855;-57
2023/03/05 08:10:13;;;;;;;22.97;7.93;;;5.10;1.00;;;;;;5069636;28;20425;-58
2023/03/05 08:12:39;;;;;;;27.35;8.23;;;5.30;1.00;;;;;;5070307;28;20890;-54
2023/03/05 08:15:05;;;;;;;27.63;8.80;;;5.20;1.00;;;;;;5069228;28;20379;-56
2023/03/05 08:17:32;;;;;;;23.38;7.63;;;5.20;1.00;;;;;;5070210;28;20383;-54
2023/03/05 08:19:59;;;;;;;30.88;10.05;;;5.20;1.00;;;;;;5075304;28;20463;-55
2023/03/05 08:22:25;;;;;;;30.73;11.30;;;6.60;1.00;;;;;;5090342;28;20414;-54
2023/03/05 08:24:51;;;;;;;24.83;8.35;;;6.40;1.00;;;;;;5090915;28;20401;-62
2023/03/05 08:27:16;;;;;;;25.60;6.97;;;5.60;1.00;;;;;;5089390;28;20386;-58
2023/03/05 08:29:42;;;;;;;18.83;7.50;;;6.20;1.00;;;;;;5090379;28;20422;-54
2023/03/05 08:32:08;;;;;;;37.20;15.15;;;5.30;1.00;;;;;;5089415;28;20386;-55
2023/03/05 08:34:33;;;;;;;26.43;9.00;;;5.40;1.00;;;;;;5054050;28;20429;-54
2023/03/05 08:36:59;;;;;;;45.57;15.07;;;5.30;1.00;;;;;;5057851;28;20776;-57
2023/03/05 08:39:25;;;;;;;40.28;13.27;;;5.30;1.00;;;;;;5069963;28;20367;-57
2023/03/05 08:41:50;;;;;;;28.30;10.73;;;5.40;1.00;;;;;;5050205;28;20472;-57
2023/03/05 08:44:16;;;;;;;30.55;11.75;;;5.60;1.00;;;;;;5055012;28;20436;-57
2023/03/05 08:46:41;;;;;;;29.40;9.57;;;6.20;1.00;;;;;;5069478;28;20777;-57
2023/03/05 08:49:08;;;;;;;25.63;9.50;;;5.50;1.00;;;;;;5053965;28;20402;-57
2023/03/05 08:51:34;;;;;;;24.20;8.23;;;6.40;1.00;;;;;;5056127;28;20395;-57
2023/03/05 08:54:02;;;;;;;22.17;7.40;;;5.60;1.00;;;;;;5068085;28;20415;-57
2023/03/05 08:56:30;;;;;;;25.85;7.07;;;5.50;1.00;;;;;;5051121;28;20882;-57
2023/03/05 08:58:56;;;;;;;18.20;7.25;;;6.40;1.00;;;;;;5050379;28;20890;-57
2023/03/05 09:01:22;;;;;;;19.13;5.78;;;5.60;1.00;;;;;;5056569;28;20388;-57
2023/03/05 09:03:48;;;;;;;23.55;6.70;;;5.30;1.00;;;;;;5069864;28;20579;-57
2023/03/05 09:06:14;;;;;;;22.02;8.02;;;4.80;1.00;;;;;;5059457;28;20504;-57
2023/03/05 09:08:39;;;;;;;18.48;7.18;;;5.90;1.00;;;;;;5069316;28;20711;-57
2023/03/05 09:11:07;;;;;;;23.40;8.47;;;5.50;1.00;;;;;;5068805;28;20422;-57
2023/03/05 09:13:33;;;;;;;23.63;7.68;;;5.60;1.00;;;;;;5069415;28;20509;-57
2023/03/05 09:16:02;;;;;;;22.45;7.82;;;5.80;1.00;;;;;;5074814;28;20484;-58
2023/03/05 09:18:28;;;;;;;23.13;8.38;;;5.90;1.00;;;;;;5089366;28;20469;-57
2023/03/05 09:20:53;;;;;;;24.20;9.15;;;5.90;1.00;;;;;;5089004;28;20417;-58
2023/03/05 09:23:19;;;;;;;20.90;7.10;;;5.80;1.00;;;;;;5069500;28;20410;-57
2023/03/05 09:25:45;;;;;;;21.88;7.95;;;5.80;1.00;;;;;;5065321;28;20415;-57
2023/03/05 09:28:11;;;;;;;21.27;7.80;;;5.60;1.00;;;;;;5063508;28;20382;-57
2023/03/05 09:30:37;;;;;;;23.27;8.13;;;5.80;1.00;;;;;;5062570;28;20431;-57
2023/03/05 09:33:03;;;;;;;20.90;7.85;;;5.80;1.00;;;;;;5055138;28;20512;-57
2023/03/05 09:35:29;;;;;;;19.52;6.63;;;5.80;1.00;;;;;;5062392;28;20500;-58
2023/03/05 09:37:55;;;;;;;18.83;7.25;;;5.70;1.00;;;;;;5058393;28;20467;-57
2023/03/05 09:40:21;;;;;;;25.02;7.82;;;5.60;1.00;;;;;;5070735;28;21017;-57
2023/03/05 09:42:56;;;;;;;17.73;6.43;;;5.40;1.00;;;;;;5077750;28;20391;-57
2023/03/05 09:45:29;;;;;;;17.88;6.95;;;5.30;1.00;;;;;;5073162;28;20447;-57
2023/03/05 09:48:24;;;;;;;20.17;6.83;;;5.40;1.00;;;;;;5071937;28;20380;-57
2023/03/05 09:51:00;;;;;;;15.32;6.28;;;5.40;1.00;;;;;;5072869;28;20372;-57
2023/03/05 09:53:37;;;;;;;19.30;7.80;;;5.30;1.00;;;;;;5072360;28;20780;-57
2023/03/05 09:56:24;;;;;;;22.50;7.80;;;6.30;1.00;;;;;;5069885;28;20807;-57
2023/03/05 09:59:14;;;;;;;26.02;7.90;;;5.60;1.00;;;;;;5057204;28;20408;-57
2023/03/05 10:01:42;;;;;;;21.98;8.05;;;7.10;1.00;;;;;;5065297;28;20486;-57
2023/03/05 10:04:17;;;;;;;21.80;7.85;;;5.40;1.00;;;;;;5061151;28;20429;-57
2023/03/05 10:06:48;;;;;;;22.08;7.40;;;5.30;1.00;;;;;;5072304;28;20411;-58
2023/03/05 10:09:30;;;;;;;18.70;6.70;;;5.20;1.00;;;;;;5072059;28;21006;-57
2023/03/05 10:12:12;;;;;;;25.98;7.35;;;5.10;1.00;;;;;;5071695;28;20706;-57
2023/03/05 10:14:40;;;;;;;21.13;8.50;;;5.40;1.00;;;;;;5065438;28;20772;-59
2023/03/05 10:17:41;;;;;;;26.65;7.70;;;5.60;1.00;;;;;;5062965;28;20379;-59
2023/03/05 10:20:28;;;;;;;21.25;8.85;;;5.70;1.00;;;;;;5056300;28;20391;-59
2023/03/05 10:23:19;;;;;;;26.95;9.02;;;5.70;1.00;;;;;;5062458;28;20404;-59
2023/03/05 10:26:03;;;;;;;24.48;8.40;;;5.70;1.00;;;;;;5071461;28;20814;-59
2023/03/05 10:28:35;;;;;;;21.93;8.37;;;5.60;1.00;;;;;;5071785;28;20529;-59
2023/03/05 10:31:06;;;;;;;24.20;7.40;;;5.70;1.00;;;;;;5070484;28;20403;-59
2023/03/05 10:33:55;;;;;;;23.52;8.75;;;5.70;1.00;;;;;;5071783;28;20396;-58
2023/03/05 10:36:29;;;;;;;22.75;9.10;;;5.50;1.00;;;;;;5068689;28;20408;-57
2023/03/05 10:39:33;;;;;;;21.40;8.77;;;5.50;1.00;;;;;;5064559;28;20392;-57
2023/03/05 10:42:09;;;;;;;20.77;8.20;;;5.70;1.00;;;;;;5065589;28;20399;-57
2023/03/05 10:44:38;;;;;;;20.98;7.95;;;5.40;1.00;;;;;;5060541;28;20448;-57
2023/03/05 10:47:20;;;;;;;21.38;7.38;;;5.60;1.00;;;;;;5070924;28;20427;-59
2023/03/05 10:49:51;;;;;;;22.65;8.05;;;5.60;1.00;;;;;;5072231;28;20380;-59
2023/03/05 10:52:39;;;;;;;21.42;9.00;;;7.00;1.00;;;;;;5071639;28;20384;-59
2023/03/05 10:55:15;;;;;;;23.38;9.25;;;6.60;1.00;;;;;;5070797;28;20414;-59
2023/03/05 10:57:41;;;;;;;19.02;7.53;;;5.80;1.00;;;;;;5072018;28;20479;-59
2023/03/05 11:00:22;;;;;;;27.30;8.70;;;5.70;1.00;;;;;;5071786;28;20467;-59
2023/03/05 11:03:01;;;;;;;29.50;9.77;;;5.80;1.00;;;;;;5071952;28;20908;-59
2023/03/05 11:05:41;;;;;;;20.65;8.27;;;5.80;1.00;;;;;;5071929;28;20414;-59
2023/03/05 11:08:28;;;;;;;23.25;8.75;;;5.80;1.00;;;;;;5071256;28;20376;-59
2023/03/05 11:11:18;;;;;;;23.33;8.50;;;6.00;1.00;;;;;;5071338;28;21147;-59
2023/03/05 11:13:51;;;;;;;24.27;9.20;;;6.00;1.00;;;;;;5072998;28;20398;-58
2023/03/05 11:16:44;;;;;;;26.95;9.30;;;6.00;1.00;;;;;;5088490;28;20421;-57
2023/03/05 11:19:31;;;;;;;22.30;8.40;;;6.20;1.00;;;;;;5085139;28;20410;-58
2023/03/05 11:22:20;;;;;;;23.63;9.57;;;7.30;1.00;;;;;;5075052;28;20409;-57
2023/03/05 11:25:03;;;;;;;24.40;8.30;;;6.10;1.00;;;;;;5089353;28;20409;-57
2023/03/05 11:27:43;;;;;;;19.77;8.43;;;6.20;1.00;;;;;;5085932;28;20444;-58
2023/03/05 11:30:38;;;;;;;19.67;8.02;;;6.20;1.00;;;;;;5085565;28;20414;-58
2023/03/05 11:33:21;;;;;;;23.17;7.85;;;6.30;1.00;;;;;;5067879;28;20817;-58
2023/03/05 11:35:48;;;;;;;19.77;8.60;;;6.30;1.00;;;;;;5077783;28;20843;-58
2023/03/05 11:38:23;;;;;;;18.30;7.57;;;6.40;1.00;;;;;;5089333;28;20765;-58
2023/03/05 11:40:50;;;;;;;22.60;8.18;;;6.30;1.00;;;;;;5091361;28;20382;-58
2023/03/05 11:43:19;;;;;;;18.60;7.32;;;6.40;1.00;;;;;;5090502;28;20390;-58
2023/03/05 11:45:49;;;;;;;19.63;7.57;;;6.60;1.00;;;;;;5074176;28;20439;-58
2023/03/05 11:48:17;;;;;;;25.48;8.32;;;7.80;1.00;;;;;;5056394;28;20476;-58
2023/03/05 11:50:45;;;;;;;23.00;7.05;;;6.50;1.00;;;;;;5063742;28;20386;-57
2023/03/05 11:53:24;;;;;;;19.45;7.03;;;6.30;1.00;;;;;;5050229;28;20858;-57
2023/03/05 11:56:08;;;;;;;19.40;8.07;;;6.40;1.00;;;;;;5051002;28;20570;-58
2023/03/05 11:58:47;;;;;;;20.88;8.60;;;6.40;1.00;;;;;;5050895;28;20456;-58
2023/03/05 12:01:22;;;;;;;15.70;6.78;;;6.70;1.00;;;;;;5050511;28;20435;-58
2023/03/05 12:03:50;;;;;;;24.80;8.10;;;6.80;1.00;;;;;;5062636;28;20393;-58
2023/03/05 12:06:31;;;;;;;23.35;8.20;;;6.60;1.00;;;;;;5058939;28;20457;-58
2023/03/05 12:09:01;;;;;;;18.13;8.20;;;6.50;1.00;;;;;;5061998;28;20874;-58
2023/03/05 12:11:30;;;;;;;22.05;8.70;;;6.60;1.00;;;;;;5059649;28;20378;-58
2023/03/05 12:14:12;;;;;;;24.55;9.38;;;7.60;1.00;;;;;;5061325;28;20386;-58
2023/03/05 12:16:50;;;;;;;21.75;8.05;;;6.50;1.00;;;;;;5064175;28;20668;-58
2023/03/05 12:19:52;;;;;;;23.45;7.60;;;6.60;1.00;;;;;;5063245;28;20459;-58
2023/03/05 12:22:23;;;;;;;19.83;7.53;;;6.70;1.00;;;;;;5058570;28;20455;-58
2023/03/05 12:24:50;;;;;;;18.83;7.50;;;6.70;1.00;;;;;;5058710;28;20416;-58
2023/03/05 12:27:34;;;;;;;20.52;7.40;;;6.70;1.00;;;;;;5058396;28;20700;-57
2023/03/05 12:30:00;;;;;;;19.42;7.13;;;6.50;1.00;;;;;;5059740;28;20503;-58
2023/03/05 12:32:32;;;;;;;19.42;8.45;;;6.20;1.00;;;;;;5070095;28;20397;-58
2023/03/05 12:35:24;;;;;;;20.17;8.02;;;6.20;1.00;;;;;;5084886;28;20781;-58
2023/03/05 12:37:50;;;;;;;19.73;8.27;;;6.30;1.00;;;;;;5084746;28;20472;-58
2023/03/05 12:40:21;;;;;;;19.70;7.90;;;6.40;1.00;;;;;;5071221;28;20421;-58
2023/03/05 12:43:04;;;;;;;17.05;7.15;;;6.50;1.00;;;;;;5073940;28;20400;-58
2023/03/05 12:45:38;;;;;;;22.98;7.65;;;6.50;1.00;;;;;;5089146;28;20410;-59
2023/03/05 12:48:09;;;;;;;16.83;6.70;;;6.30;1.00;;;;;;5077627;28;20970;-59
2023/03/05 12:50:37;;;;;;;18.73;7.57;;;6.40;1.00;;;;;;5081556;28;20493;-58
2023/03/05 12:53:03;;;;;;;16.40;6.95;;;6.40;1.00;;;;;;5078956;28;20412;-57
2023/03/05 12:55:52;;;;;;;17.90;7.17;;;7.70;1.00;;;;;;5083893;28;20415;-57
2023/03/05 12:58:26;;;;;;;16.67;6.10;;;6.60;1.00;;;;;;5085995;28;20459;-58
2023/03/05 13:01:10;;;;;;;19.83;6.80;;;6.50;1.00;;;;;;5087152;28;20459;-58
2023/03/05 13:03:58;;;;;;;19.20;6.65;;;6.50;1.00;;;;;;5072143;28;20414;-59